Time;durP1;ratioP1;P1;durP2;ratioP2;P2;SDS_P1;SDS_P2;PMS_P1;PMS_P2;Temp;Humidity;BMP_temperature;BMP_pressure;BME280_temperature;BME280_humidity;BME280_pressure;Samples;Min_cycle;Max_cycle;Signal;HPM_P1;HPM_P2
2021/01/05 00:00:21;;;;;;;;;;;5.70;82.00;;;;;;5040241;28;19916;-79
2021/01/05 00:02:47;;;;;;;;;;;5.70;82.00;;;;;;5039054;28;19908;-77
2021/01/05 00:05:14;;;;;;;;;;;5.70;82.00;;;;;;5048263;28;20011;-81
2021/01/05 00:07:39;;;;;;;;;;;5.70;82.00;;;;;;5034490;28;19917;-77
2021/01/05 00:10:06;;;;;;;;;;;5.70;82.00;;;;;;5047080;28;20284;-78
2021/01/05 00:12:32;;;;;;;;;;;5.70;81.90;;;;;;5047781;28;20003;-77
2021/01/05 00:14:57;;;;;;;;;;;5.70;82.00;;;;;;5038113;28;20391;-77
2021/01/05 00:17:23;;;;;;;;;;;5.70;82.00;;;;;;5050624;28;20365;-78
2021/01/05 00:19:49;;;;;;;;;;;5.70;82.00;;;;;;5046286;28;19992;-77
2021/01/05 00:22:15;;;;;;;;;;;5.70;82.00;;;;;;5051408;28;19908;-76
2021/01/05 00:24:41;;;;;;;;;;;5.70;82.00;;;;;;5039214;28;19913;-77
2021/01/05 00:27:07;;;;;;;;;;;5.70;82.00;;;;;;5033116;28;19913;-77
2021/01/05 00:29:33;;;;;;;;;;;5.70;82.00;;;;;;5041830;28;19920;-78
2021/01/05 00:32:05;;;;;;;;;;;5.70;82.00;;;;;;5040041;28;20496;-77
2021/01/05 00:34:30;;;;;;;;;;;5.70;82.00;;;;;;5023927;28;19944;-77
2021/01/05 00:36:57;;;;;;;;;;;5.70;82.00;;;;;;5037175;28;19939;-76
2021/01/05 00:39:22;;;;;;;;;;;5.70;82.00;;;;;;5048505;28;19963;-82
2021/01/05 00:41:48;;;;;;;;;;;5.70;81.90;;;;;;5032074;28;19909;-78
2021/01/05 00:44:14;;;;;;;;;;;5.70;81.90;;;;;;5050091;28;19908;-82
2021/01/05 00:46:39;;;;;;;;;;;5.70;81.90;;;;;;5031192;28;19951;-78
2021/01/05 00:49:05;;;;;;;;;;;5.70;81.90;;;;;;5021000;28;19954;-77
2021/01/05 00:51:31;;;;;;;;;;;5.70;81.90;;;;;;5005077;28;19967;-77
2021/01/05 00:53:57;;;;;;;;;;;5.70;81.90;;;;;;5031524;28;20350;-77
2021/01/05 00:56:22;;;;;;;;;;;5.70;81.90;;;;;;5021317;28;19967;-76
2021/01/05 00:58:48;;;;;;;;;;;5.70;81.90;;;;;;5007419;28;19920;-77
2021/01/05 01:01:14;;;;;;;;;;;5.70;81.90;;;;;;5034350;28;19913;-77
2021/01/05 01:03:40;;;;;;;;;;;5.70;81.90;;;;;;5040060;28;19920;-77
2021/01/05 01:06:06;;;;;;;;;;;5.70;82.00;;;;;;5031005;28;20519;-79
2021/01/05 01:08:31;;;;;;;;;;;5.70;82.00;;;;;;5042104;28;19939;-78
2021/01/05 01:10:57;;;;;;;;;;;5.70;81.90;;;;;;5016693;28;19913;-78
2021/01/05 01:13:26;;;;;;;;;;;5.70;82.00;;;;;;5043613;28;19909;-84
2021/01/05 01:15:52;;;;;;;;;;;5.70;82.00;;;;;;5027164;28;20349;-79
2021/01/05 01:18:18;;;;;;;;;;;5.70;81.90;;;;;;5044560;28;19909;-77
2021/01/05 01:20:45;;;;;;;;;;;5.70;81.90;;;;;;5030333;28;19913;-76
2021/01/05 01:23:18;;;;;;;;;;;5.70;81.90;;;;;;5037721;28;19947;-77
2021/01/05 01:25:47;;;;;;;;;;;5.70;82.00;;;;;;5034237;28;19917;-76
2021/01/05 01:28:13;;;;;;;;;;;5.70;81.90;;;;;;4999559;28;19917;-79
2021/01/05 01:30:44;;;;;;;;;;;5.70;82.00;;;;;;5038067;28;19956;-76
2021/01/05 01:33:12;;;;;;;;;;;5.70;82.00;;;;;;5032302;28;19916;-77
2021/01/05 01:35:39;;;;;;;;;;;5.70;82.00;;;;;;4998390;28;19936;-76
2021/01/05 01:38:05;;;;;;;;;;;5.70;81.90;;;;;;5041293;28;19913;-80
2021/01/05 01:40:39;;;;;;;;;;;5.70;81.90;;;;;;5032803;28;19935;-77
2021/01/05 01:43:11;;;;;;;;;;;5.70;82.00;;;;;;5029860;28;19909;-78
2021/01/05 01:45:38;;;;;;;;;;;5.70;81.90;;;;;;5044007;28;19919;-79
2021/01/05 01:48:08;;;;;;;;;;;5.60;81.90;;;;;;5000488;28;20009;-79
2021/01/05 01:50:34;;;;;;;;;;;5.70;81.90;;;;;;5045269;28;19924;-82
2021/01/05 01:53:20;;;;;;;;;;;5.60;81.90;;;;;;5045850;28;19909;-77
2021/01/05 01:56:15;;;;;;;;;;;5.70;82.00;;;;;;5058712;28;19971;-79
2021/01/05 01:59:17;;;;;;;;;;;5.60;81.90;;;;;;5050308;28;19909;-77
2021/01/05 02:01:54;;;;;;;;;;;5.70;82.00;;;;;;5047051;28;19916;-79
2021/01/05 02:04:38;;;;;;;;;;;5.60;81.90;;;;;;5035642;28;19916;-79
2021/01/05 02:07:10;;;;;;;;;;;5.70;82.00;;;;;;5038673;28;19919;-78
2021/01/05 02:09:40;;;;;;;;;;;5.60;81.90;;;;;;5033770;28;19909;-83
2021/01/05 02:12:12;;;;;;;;;;;5.60;81.90;;;;;;5048426;28;19948;-77
2021/01/05 02:14:47;;;;;;;;;;;5.60;81.90;;;;;;5029841;28;19928;-81
2021/01/05 02:17:19;;;;;;;;;;;5.60;81.90;;;;;;5045264;28;19920;-79
2021/01/05 02:19:47;;;;;;;;;;;5.60;81.90;;;;;;5046140;28;19984;-76
2021/01/05 02:22:39;;;;;;;;;;;5.60;81.90;;;;;;5048879;28;19935;-77
2021/01/05 02:25:25;;;;;;;;;;;5.60;81.90;;;;;;5023335;28;19913;-77
2021/01/05 02:28:00;;;;;;;;;;;5.60;81.90;;;;;;5033499;28;19963;-77
2021/01/05 02:30:32;;;;;;;;;;;5.60;81.90;;;;;;5061189;28;19963;-76
2021/01/05 02:33:18;;;;;;;;;;;5.60;81.90;;;;;;5043779;28;19999;-79
2021/01/05 02:36:06;;;;;;;;;;;5.60;82.00;;;;;;5050029;28;19909;-78
2021/01/05 02:39:19;;;;;;;;;;;5.60;81.90;;;;;;5039639;28;19920;-77
2021/01/05 02:42:22;;;;;;;;;;;5.60;81.90;;;;;;5040453;28;20369;-78
2021/01/05 02:45:13;;;;;;;;;;;5.60;81.90;;;;;;5042475;28;20020;-78
2021/01/05 02:48:23;;;;;;;;;;;5.60;81.90;;;;;;5008228;28;20000;-78
2021/01/05 02:51:23;;;;;;;;;;;5.60;81.90;;;;;;5046525;28;19923;-78
2021/01/05 02:54:32;;;;;;;;;;;5.60;81.90;;;;;;5049611;28;19952;-78
2021/01/05 02:57:26;;;;;;;;;;;5.60;81.90;;;;;;5035453;28;20285;-77
2021/01/05 03:00:34;;;;;;;;;;;5.60;81.90;;;;;;5043560;28;20467;-77
2021/01/05 03:03:31;;;;;;;;;;;5.60;81.90;;;;;;5044947;28;19924;-77
2021/01/05 03:06:30;;;;;;;;;;;5.60;81.90;;;;;;5039605;28;20444;-81
2021/01/05 03:09:20;;;;;;;;;;;5.60;81.90;;;;;;5048252;28;19915;-77
2021/01/05 03:12:23;;;;;;;;;;;5.60;81.90;;;;;;5033904;28;20004;-80
2021/01/05 03:15:20;;;;;;;;;;;5.60;81.90;;;;;;5047385;28;19959;-77
2021/01/05 03:18:34;;;;;;;;;;;5.60;81.90;;;;;;5037807;28;20035;-76
2021/01/05 03:21:23;;;;;;;;;;;5.60;81.90;;;;;;4988150;28;19954;-77
2021/01/05 03:24:08;;;;;;;;;;;5.60;81.90;;;;;;5051524;28;19916;-78
2021/01/05 03:26:54;;;;;;;;;;;5.60;81.90;;;;;;5037539;28;19928;-76
2021/01/05 03:29:38;;;;;;;;;;;5.60;81.90;;;;;;5040826;28;20586;-77
2021/01/05 03:32:23;;;;;;;;;;;5.60;81.90;;;;;;5047726;28;19955;-79
2021/01/05 03:35:07;;;;;;;;;;;5.60;81.90;;;;;;5063021;28;20451;-76
2021/01/05 03:37:56;;;;;;;;;;;5.60;81.90;;;;;;5005464;28;19913;-77
2021/01/05 03:40:41;;;;;;;;;;;5.60;81.90;;;;;;5039475;28;20046;-84
2021/01/05 03:43:25;;;;;;;;;;;5.60;81.90;;;;;;5044828;28;19916;-77
2021/01/05 03:46:12;;;;;;;;;;;5.60;81.90;;;;;;5034849;28;19927;-77
2021/01/05 03:48:57;;;;;;;;;;;5.60;81.90;;;;;;5044275;28;20324;-79
2021/01/05 03:51:41;;;;;;;;;;;5.60;81.90;;;;;;5034047;28;20285;-81
2021/01/05 03:54:25;;;;;;;;;;;5.60;81.90;;;;;;5032746;28;20489;-77
2021/01/05 03:57:09;;;;;;;;;;;5.60;81.90;;;;;;5042272;28;19962;-77
2021/01/05 03:59:53;;;;;;;;;;;5.60;81.90;;;;;;5046877;28;19920;-77
2021/01/05 04:02:37;;;;;;;;;;;5.60;81.90;;;;;;5038396;28;19948;-77
2021/01/05 04:05:03;;;;;;;;;;;5.60;81.90;;;;;;5029288;28;19921;-77
2021/01/05 04:07:29;;;;;;;;;;;5.60;81.90;;;;;;5034901;28;19909;-79
2021/01/05 04:09:55;;;;;;;;;;;5.60;81.90;;;;;;5038034;28;19916;-78
2021/01/05 04:12:20;;;;;;;;;;;5.60;81.90;;;;;;5050987;28;19913;-77
2021/01/05 04:14:46;;;;;;;;;;;5.60;81.90;;;;;;5037529;28;19995;-77
2021/01/05 04:17:12;;;;;;;;;;;5.60;81.90;;;;;;5050010;28;19958;-76
2021/01/05 04:19:37;;;;;;;;;;;5.60;81.90;;;;;;5052036;28;19908;-77
2021/01/05 04:22:03;;;;;;;;;;;5.60;81.90;;;;;;5051691;28;20424;-78
2021/01/05 04:24:28;;;;;;;;;;;5.60;81.90;;;;;;5047386;28;19917;-77
2021/01/05 04:26:54;;;;;;;;;;;5.60;81.90;;;;;;5050041;28;20315;-77
2021/01/05 04:29:20;;;;;;;;;;;5.60;81.90;;;;;;5033266;28;19935;-77
2021/01/05 04:31:45;;;;;;;;;;;5.60;81.90;;;;;;5033733;28;19952;-81
2021/01/05 04:34:13;;;;;;;;;;;5.60;81.90;;;;;;5032342;28;19913;-80
2021/01/05 04:36:38;;;;;;;;;;;5.60;81.90;;;;;;5042562;28;19913;-77
2021/01/05 04:39:04;;;;;;;;;;;5.60;81.80;;;;;;5025625;28;19913;-79
2021/01/05 04:41:33;;;;;;;;;;;5.60;81.90;;;;;;5039433;28;19958;-77
2021/01/05 04:44:00;;;;;;;;;;;5.60;81.90;;;;;;5042684;28;20383;-77
2021/01/05 04:46:29;;;;;;;;;;;5.60;81.90;;;;;;5038839;28;19917;-78
2021/01/05 04:48:56;;;;;;;;;;;5.60;81.90;;;;;;5044774;28;20316;-78
2021/01/05 04:51:28;;;;;;;;;;;5.60;82.50;;;;;;5031617;28;19921;-78
2021/01/05 04:53:58;;;;;;;;;;;5.60;81.90;;;;;;5049748;28;20372;-78
2021/01/05 04:56:27;;;;;;;;;;;5.60;81.90;;;;;;5034199;28;20007;-77
2021/01/05 04:58:57;;;;;;;;;;;5.60;81.90;;;;;;5050085;28;20054;-77
2021/01/05 05:01:25;;;;;;;;;;;5.60;81.90;;;;;;5051656;28;19908;-77
2021/01/05 05:04:17;;;;;;;;;;;5.60;81.90;;;;;;5039739;28;19911;-78
2021/01/05 05:06:52;;;;;;;;;;;5.60;81.90;;;;;;5035947;28;20264;-77
2021/01/05 05:09:34;;;;;;;;;;;5.60;81.90;;;;;;5041159;28;19955;-77
2021/01/05 05:12:08;;;;;;;;;;;5.60;81.90;;;;;;5032997;28;19959;-78
2021/01/05 05:14:58;;;;;;;;;;;5.60;81.90;;;;;;5032380;28;19909;-81
2021/01/05 05:17:47;;;;;;;;;;;5.60;81.90;;;;;;5045295;28;19909;-77
2021/01/05 05:20:31;;;;;;;;;;;5.60;81.90;;;;;;5031168;28;20258;-76
2021/01/05 05:23:14;;;;;;;;;;;5.60;81.90;;;;;;5040086;28;19967;-77
2021/01/05 05:25:55;;;;;;;;;;;5.60;81.80;;;;;;5032368;28;19921;-76
2021/01/05 05:28:23;;;;;;;;;;;5.60;81.90;;;;;;5039962;28;20246;-82
2021/01/05 05:30:48;;;;;;;;;;;5.60;81.80;;;;;;5029563;28;19909;-76
2021/01/05 05:33:26;;;;;;;;;;;5.60;81.80;;;;;;5033208;28;20012;-77
2021/01/05 05:36:17;;;;;;;;;;;5.60;81.80;;;;;;5045499;28;19915;-76
2021/01/05 05:38:49;;;;;;;;;;;5.60;81.80;;;;;;5041229;28;19947;-76
2021/01/05 05:41:14;;;;;;;;;;;5.60;81.80;;;;;;5036794;28;19909;-77
2021/01/05 05:43:58;;;;;;;;;;;5.60;81.80;;;;;;5025944;28;20365;-76
2021/01/05 05:46:32;;;;;;;;;;;5.60;81.80;;;;;;5045239;28;19917;-77
2021/01/05 05:49:01;;;;;;;;;;;5.60;81.80;;;;;;5040954;28;19909;-78
2021/01/05 05:51:31;;;;;;;;;;;5.60;81.80;;;;;;5043864;28;19998;-77
2021/01/05 05:54:11;;;;;;;;;;;5.60;81.80;;;;;;5046103;28;19963;-78
2021/01/05 05:57:02;;;;;;;;;;;5.60;81.80;;;;;;5043882;28;19908;-77
2021/01/05 05:59:45;;;;;;;;;;;5.60;81.80;;;;;;5051098;28;20503;-78
2021/01/05 06:02:12;;;;;;;;;;;5.60;81.80;;;;;;5054011;28;19909;-77
2021/01/05 06:04:38;;;;;;;;;;;5.60;81.90;;;;;;5050836;28;20003;-76
2021/01/05 06:07:05;;;;;;;;;;;5.60;81.80;;;;;;5048377;28;20003;-77
2021/01/05 06:09:30;;;;;;;;;;;5.60;81.80;;;;;;5048118;28;20016;-76
2021/01/05 06:11:58;;;;;;;;;;;5.60;81.80;;;;;;5052254;28;20016;-78
2021/01/05 06:14:23;;;;;;;;;;;5.60;81.80;;;;;;5043019;28;19917;-77
2021/01/05 06:16:49;;;;;;;;;;;5.60;81.80;;;;;;5045999;28;20008;-82
2021/01/05 06:19:14;;;;;;;;;;;5.60;81.80;;;;;;5022392;28;19924;-77
2021/01/05 06:21:40;;;;;;;;;;;5.60;81.80;;;;;;5044439;28;20563;-79
2021/01/05 06:24:06;;;;;;;;;;;5.60;81.80;;;;;;5033937;28;19920;-81
2021/01/05 06:26:32;;;;;;;;;;;5.60;81.80;;;;;;5033339;28;20008;-82
2021/01/05 06:28:57;;;;;;;;;;;5.60;81.80;;;;;;5051499;28;20015;-79
2021/01/05 06:31:23;;;;;;;;;;;5.60;81.80;;;;;;5044081;28;19909;-79
2021/01/05 06:33:49;;;;;;;;;;;5.60;81.80;;;;;;5046342;28;20409;-76
2021/01/05 06:36:14;;;;;;;;;;;5.60;81.80;;;;;;5026717;28;19920;-76
2021/01/05 06:38:40;;;;;;;;;;;5.70;81.90;;;;;;5048316;28;20075;-77
2021/01/05 06:41:06;;;;;;;;;;;5.70;81.90;;;;;;5045257;28;19919;-80
2021/01/05 06:43:31;;;;;;;;;;;5.60;81.80;;;;;;5049257;28;20011;-77
2021/01/05 06:45:57;;;;;;;;;;;5.60;81.80;;;;;;5049058;28;19928;-77
2021/01/05 06:48:23;;;;;;;;;;;5.60;82.20;;;;;;5048982;28;20707;-76
2021/01/05 06:50:48;;;;;;;;;;;5.60;81.80;;;;;;5050460;28;20343;-78
2021/01/05 06:53:14;;;;;;;;;;;5.60;81.80;;;;;;5045832;28;19912;-77
2021/01/05 06:55:39;;;;;;;;;;;5.60;81.80;;;;;;5036662;28;19956;-77
2021/01/05 06:58:05;;;;;;;;;;;5.60;81.80;;;;;;5044846;28;19912;-79
2021/01/05 07:00:31;;;;;;;;;;;5.70;81.90;;;;;;5048060;28;19936;-77
2021/01/05 07:02:57;;;;;;;;;;;5.60;81.80;;;;;;5043070;28;20423;-78
2021/01/05 07:05:23;;;;;;;;;;;5.60;81.90;;;;;;5045849;28;19924;-77
2021/01/05 07:07:48;;;;;;;;;;;5.60;81.80;;;;;;5038883;28;20340;-76
2021/01/05 07:10:15;;;;;;;;;;;5.60;81.80;;;;;;5051451;28;19908;-78
2021/01/05 07:12:41;;;;;;;;;;;5.60;81.80;;;;;;5031730;28;20027;-76
2021/01/05 07:15:09;;;;;;;;;;;5.60;81.80;;;;;;5031363;28;19909;-77
2021/01/05 07:17:34;;;;;;;;;;;5.60;81.80;;;;;;5038473;28;19905;-78
2021/01/05 07:20:00;;;;;;;;;;;5.60;81.80;;;;;;5050500;28;19920;-76
2021/01/05 07:22:26;;;;;;;;;;;5.60;81.80;;;;;;5035990;28;20489;-78
2021/01/05 07:24:51;;;;;;;;;;;5.60;81.80;;;;;;5052748;28;20264;-76
2021/01/05 07:27:17;;;;;;;;;;;5.70;81.80;;;;;;5045492;28;19913;-77
2021/01/05 07:29:43;;;;;;;;;;;5.70;81.80;;;;;;5052411;28;19962;-76
2021/01/05 07:32:08;;;;;;;;;;;5.70;81.80;;;;;;5053170;28;19920;-76
2021/01/05 07:34:37;;;;;;;;;;;5.60;81.80;;;;;;5005498;28;19982;-76
2021/01/05 07:37:04;;;;;;;;;;;5.60;81.80;;;;;;5050539;28;19921;-81
2021/01/05 07:39:31;;;;;;;;;;;5.70;81.90;;;;;;5033880;28;19936;-77
2021/01/05 07:42:15;;;;;;;;;;;5.60;81.80;;;;;;5044921;28;19908;-77
2021/01/05 07:44:41;;;;;;;;;;;5.60;81.80;;;;;;5044590;28;19975;-77
2021/01/05 07:47:07;;;;;;;;;;;5.70;81.80;;;;;;5032497;28;19913;-79
2021/01/05 07:49:33;;;;;;;;;;;5.70;81.90;;;;;;5041129;28;20292;-77
2021/01/05 07:51:58;;;;;;;;;;;5.70;81.80;;;;;;5031362;28;19924;-77
2021/01/05 07:54:24;;;;;;;;;;;5.70;81.80;;;;;;5042132;28;19916;-77
2021/01/05 07:56:50;;;;;;;;;;;5.70;81.80;;;;;;5047966;28;19936;-79
2021/01/05 07:59:18;;;;;;;;;;;5.70;81.80;;;;;;5031914;28;19920;-77
2021/01/05 08:01:46;;;;;;;;;;;5.70;81.80;;;;;;5039307;28;19916;-76
2021/01/05 08:04:12;;;;;;;;;;;5.70;81.80;;;;;;5044760;28;19916;-76
2021/01/05 08:06:41;;;;;;;;;;;5.60;82.40;;;;;;5033086;28;19917;-79
2021/01/05 08:09:07;;;;;;;;;;;5.60;81.80;;;;;;5038744;28;20276;-76
2021/01/05 08:11:37;;;;;;;;;;;5.70;81.80;;;;;;5030972;28;19913;-77
2021/01/05 08:14:03;;;;;;;;;;;5.70;81.90;;;;;;5034801;28;19912;-76
2021/01/05 08:16:28;;;;;;;;;;;5.70;81.80;;;;;;5051589;28;19916;-77
2021/01/05 08:18:54;;;;;;;;;;;5.70;81.80;;;;;;5051763;28;19928;-76
2021/01/05 08:21:23;;;;;;;;;;;5.70;81.80;;;;;;5051244;28;19913;-77
2021/01/05 08:23:49;;;;;;;;;;;5.70;81.80;;;;;;5051722;28;19936;-78
2021/01/05 08:26:14;;;;;;;;;;;5.70;81.80;;;;;;5051979;28;19970;-78
2021/01/05 08:28:40;;;;;;;;;;;5.70;81.80;;;;;;5050166;28;19955;-76
2021/01/05 08:31:06;;;;;;;;;;;5.70;81.80;;;;;;5042149;28;19944;-78
2021/01/05 08:33:31;;;;;;;;;;;5.70;81.90;;;;;;5049918;28;19912;-77
2021/01/05 08:35:57;;;;;;;;;;;5.70;81.80;;;;;;5046978;28;19936;-77
2021/01/05 08:38:22;;;;;;;;;;;5.70;81.90;;;;;;5040732;28;19927;-79
2021/01/05 08:40:48;;;;;;;;;;;5.70;81.80;;;;;;5052029;28;19955;-77
2021/01/05 08:43:14;;;;;;;;;;;5.70;81.80;;;;;;5033795;28;20423;-76
2021/01/05 08:45:40;;;;;;;;;;;5.70;82.40;;;;;;5040848;28;20325;-76
2021/01/05 08:48:06;;;;;;;;;;;5.70;81.80;;;;;;5044215;28;19917;-76
2021/01/05 08:50:32;;;;;;;;;;;5.70;81.80;;;;;;5037015;28;19966;-77
2021/01/05 08:52:59;;;;;;;;;;;5.70;81.80;;;;;;5048961;28;20361;-76
2021/01/05 08:55:24;;;;;;;;;;;5.70;81.80;;;;;;5037235;28;20007;-79
2021/01/05 08:57:50;;;;;;;;;;;5.70;81.80;;;;;;5034496;28;20039;-76
2021/01/05 09:00:16;;;;;;;;;;;5.70;82.40;;;;;;5040874;28;20348;-80
2021/01/05 09:02:41;;;;;;;;;;;5.70;81.80;;;;;;5045857;28;19935;-76
2021/01/05 09:05:08;;;;;;;;;;;5.70;81.70;;;;;;5033777;28;19924;-76
2021/01/05 09:07:33;;;;;;;;;;;5.70;81.70;;;;;;5050401;28;19912;-77
2021/01/05 09:09:59;;;;;;;;;;;5.70;81.80;;;;;;5016557;28;20018;-77
2021/01/05 09:12:31;;;;;;;;;;;5.70;81.70;;;;;;5047136;28;19913;-79
2021/01/05 09:14:57;;;;;;;;;;;5.70;81.80;;;;;;5050801;28;19955;-77
2021/01/05 09:17:22;;;;;;;;;;;5.70;81.70;;;;;;5034175;28;19913;-77
2021/01/05 09:19:48;;;;;;;;;;;5.70;81.70;;;;;;5047005;28;19995;-76
2021/01/05 09:22:13;;;;;;;;;;;5.70;81.70;;;;;;5035843;28;19920;-78
2021/01/05 09:24:39;;;;;;;;;;;5.70;81.70;;;;;;5050459;28;19909;-75
2021/01/05 09:27:04;;;;;;;;;;;5.70;81.70;;;;;;5024408;28;19963;-78
2021/01/05 09:29:30;;;;;;;;;;;5.70;81.70;;;;;;5036022;28;20602;-76
2021/01/05 09:31:56;;;;;;;;;;;5.70;81.70;;;;;;5054733;28;19940;-77
2021/01/05 09:34:23;;;;;;;;;;;5.70;82.40;;;;;;5035664;28;19917;-80
2021/01/05 09:36:51;;;;;;;;;;;5.70;81.70;;;;;;5067913;28;19971;-76
2021/01/05 09:39:20;;;;;;;;;;;5.80;81.80;;;;;;5049597;28;19996;-76
2021/01/05 09:41:48;;;;;;;;;;;5.80;81.80;;;;;;5045181;28;19909;-75
2021/01/05 09:44:13;;;;;;;;;;;5.80;81.80;;;;;;5054664;28;19909;-75
2021/01/05 09:46:39;;;;;;;;;;;5.80;81.80;;;;;;5053912;28;20368;-75
2021/01/05 09:49:14;;;;;;;;;;;5.70;81.70;;;;;;5053274;28;20333;-76
2021/01/05 09:51:40;;;;;;;;;;;5.80;81.80;;;;;;5038491;28;20475;-76
2021/01/05 09:54:06;;;;;;;;;;;5.80;81.80;;;;;;5035490;28;20012;-75
2021/01/05 09:56:32;;;;;;;;;;;5.80;81.80;;;;;;5039741;28;20393;-77
2021/01/05 09:58:57;;;;;;;;;;;5.70;81.70;;;;;;5054192;28;19905;-76
2021/01/05 10:01:24;;;;;;;;;;;5.70;81.80;;;;;;5048371;28;20330;-78
2021/01/05 10:03:50;;;;;;;;;;;5.80;81.80;;;;;;5042670;28;19905;-76
2021/01/05 10:06:16;;;;;;;;;;;5.80;81.80;;;;;;5050761;28;19917;-76
2021/01/05 10:08:41;;;;;;;;;;;5.80;81.80;;;;;;5033391;28;19909;-76
2021/01/05 10:11:07;;;;;;;;;;;5.80;81.80;;;;;;5047574;28;20486;-79
2021/01/05 10:13:33;;;;;;;;;;;5.80;81.70;;;;;;5045051;28;19917;-76
2021/01/05 10:15:58;;;;;;;;;;;5.80;81.70;;;;;;5042999;28;20007;-75
2021/01/05 10:18:24;;;;;;;;;;;5.80;81.70;;;;;;5042372;28;20464;-75
2021/01/05 10:20:49;;;;;;;;;;;5.80;81.70;;;;;;5051867;28;19913;-80
2021/01/05 10:23:15;;;;;;;;;;;5.80;81.70;;;;;;5054692;28;20333;-76
2021/01/05 10:25:41;;;;;;;;;;;5.80;81.70;;;;;;5053105;28;20016;-76
2021/01/05 10:28:06;;;;;;;;;;;5.80;81.70;;;;;;5043150;28;19992;-77
2021/01/05 10:30:32;;;;;;;;;;;5.90;81.80;;;;;;5050487;28;19912;-76
2021/01/05 10:32:58;;;;;;;;;;;5.80;81.70;;;;;;5028227;28;20004;-77
2021/01/05 10:35:23;;;;;;;;;;;5.80;81.70;;;;;;5047211;28;20003;-77
2021/01/05 10:37:49;;;;;;;;;;;5.90;81.80;;;;;;5054463;28;19919;-77
2021/01/05 10:40:16;;;;;;;;;;;5.90;81.80;;;;;;5066320;28;19911;-76
2021/01/05 10:42:42;;;;;;;;;;;5.80;81.70;;;;;;5035983;28;19917;-76
2021/01/05 10:45:09;;;;;;;;;;;5.90;81.80;;;;;;5043552;28;19939;-77
2021/01/05 10:47:34;;;;;;;;;;;5.90;81.80;;;;;;5049500;28;19916;-76
2021/01/05 10:50:03;;;;;;;;;;;5.80;81.70;;;;;;5052643;28;19909;-76
2021/01/05 10:52:28;;;;;;;;;;;5.90;81.80;;;;;;5036134;28;19916;-76
2021/01/05 10:54:54;;;;;;;;;;;5.90;81.70;;;;;;5053705;28;19912;-76
2021/01/05 10:57:19;;;;;;;;;;;5.90;81.70;;;;;;5053995;28;19913;-76
2021/01/05 10:59:45;;;;;;;;;;;5.90;81.70;;;;;;5035330;28;19952;-76
2021/01/05 11:02:11;;;;;;;;;;;5.90;81.70;;;;;;5041476;28;19920;-77
2021/01/05 11:04:36;;;;;;;;;;;5.90;81.70;;;;;;5028591;28;19921;-76
2021/01/05 11:07:04;;;;;;;;;;;5.90;81.70;;;;;;5042202;28;19958;-77
2021/01/05 11:09:30;;;;;;;;;;;5.90;81.70;;;;;;5051245;28;19905;-77
2021/01/05 11:11:57;;;;;;;;;;;5.90;81.70;;;;;;5051962;28;20007;-77
2021/01/05 11:14:23;;;;;;;;;;;5.90;81.70;;;;;;5053746;28;19908;-76
2021/01/05 11:16:49;;;;;;;;;;;5.90;81.70;;;;;;5053246;28;19916;-77
2021/01/05 11:19:15;;;;;;;;;;;5.90;81.80;;;;;;5046834;28;20384;-77
2021/01/05 11:21:41;;;;;;;;;;;5.90;81.70;;;;;;5048461;28;19913;-78
2021/01/05 11:24:07;;;;;;;;;;;5.90;81.70;;;;;;5036998;28;19913;-76
2021/01/05 11:26:36;;;;;;;;;;;5.90;81.70;;;;;;5023165;28;19976;-80
2021/01/05 11:29:03;;;;;;;;;;;5.90;81.70;;;;;;5049405;28;20571;-77
2021/01/05 11:31:28;;;;;;;;;;;5.90;82.30;;;;;;5042911;28;19909;-79
2021/01/05 11:33:54;;;;;;;;;;;5.90;81.70;;;;;;5046940;28;19924;-77
2021/01/05 11:36:24;;;;;;;;;;;5.90;81.70;;;;;;5039634;28;19931;-77
2021/01/05 11:38:50;;;;;;;;;;;5.90;81.70;;;;;;5037199;28;19913;-76
2021/01/05 11:41:30;;;;;;;;;;;5.90;81.70;;;;;;5047792;28;20281;-76
2021/01/05 11:43:56;;;;;;;;;;;6.00;81.70;;;;;;5045563;28;19915;-76
2021/01/05 11:46:22;;;;;;;;;;;6.00;81.70;;;;;;5033791;28;19913;-78
2021/01/05 11:48:47;;;;;;;;;;;6.00;81.70;;;;;;5026852;28;20662;-76
2021/01/05 11:51:17;;;;;;;;;;;6.00;81.70;;;;;;5028213;28;20375;-77
2021/01/05 11:53:43;;;;;;;;;;;6.00;81.70;;;;;;5041570;28;19912;-77
2021/01/05 11:56:15;;;;;;;;;;;6.00;81.70;;;;;;5051353;28;19913;-76
2021/01/05 11:58:41;;;;;;;;;;;6.00;81.70;;;;;;5052091;28;19999;-76
2021/01/05 12:01:07;;;;;;;;;;;6.00;81.70;;;;;;5050240;28;19951;-77
2021/01/05 12:03:32;;;;;;;;;;;6.00;81.70;;;;;;5033229;28;19943;-76
2021/01/05 12:05:58;;;;;;;;;;;6.00;81.70;;;;;;5037367;28;19971;-76
2021/01/05 12:08:23;;;;;;;;;;;6.00;81.70;;;;;;5031136;28;20028;-77
2021/01/05 12:10:49;;;;;;;;;;;6.00;81.70;;;;;;5033386;28;20417;-76
2021/01/05 12:13:14;;;;;;;;;;;6.00;81.70;;;;;;5033118;28;20277;-77
2021/01/05 12:15:41;;;;;;;;;;;6.00;81.60;;;;;;5031300;28;20372;-77
2021/01/05 12:18:07;;;;;;;;;;;6.00;81.60;;;;;;5040565;28;19931;-77
2021/01/05 12:20:32;;;;;;;;;;;6.00;81.60;;;;;;5048431;28;19916;-76
2021/01/05 12:22:58;;;;;;;;;;;6.00;81.60;;;;;;5041337;28;20065;-76
2021/01/05 12:25:24;;;;;;;;;;;6.10;81.70;;;;;;5038790;28;19913;-76
2021/01/05 12:27:49;;;;;;;;;;;6.00;81.70;;;;;;5042443;28;20308;-79
2021/01/05 12:30:15;;;;;;;;;;;6.00;81.60;;;;;;5030394;28;19915;-77
2021/01/05 12:32:41;;;;;;;;;;;6.00;81.70;;;;;;5050093;28;20438;-77
2021/01/05 12:35:07;;;;;;;;;;;6.10;81.70;;;;;;5031143;28;19909;-77
2021/01/05 12:37:32;;;;;;;;;;;6.10;81.70;;;;;;5047493;28;19912;-78
2021/01/05 12:39:58;;;;;;;;;;;6.10;81.70;;;;;;5051082;28;19909;-77
2021/01/05 12:42:26;;;;;;;;;;;6.10;81.70;;;;;;5032510;28;19928;-77
2021/01/05 12:44:52;;;;;;;;;;;6.10;81.70;;;;;;5040161;28;19948;-77
2021/01/05 12:47:19;;;;;;;;;;;6.10;81.70;;;;;;5050516;28;19912;-77
2021/01/05 12:49:44;;;;;;;;;;;6.10;81.70;;;;;;5031912;28;20008;-77
2021/01/05 12:52:11;;;;;;;;;;;6.10;81.70;;;;;;5031718;28;20007;-78
2021/01/05 12:54:37;;;;;;;;;;;6.10;81.70;;;;;;5014660;28;19914;-78
2021/01/05 12:57:03;;;;;;;;;;;6.10;81.70;;;;;;5038197;28;19919;-78
2021/01/05 12:59:29;;;;;;;;;;;6.10;81.70;;;;;;5033363;28;19912;-77
2021/01/05 13:01:55;;;;;;;;;;;6.10;81.70;;;;;;5051268;28;19967;-76
2021/01/05 13:04:21;;;;;;;;;;;6.10;81.70;;;;;;5032896;28;19959;-77
2021/01/05 13:06:47;;;;;;;;;;;6.10;81.70;;;;;;5049455;28;20319;-77
2021/01/05 13:09:13;;;;;;;;;;;6.10;81.70;;;;;;5050992;28;19970;-76
2021/01/05 13:11:41;;;;;;;;;;;6.10;81.70;;;;;;5049578;28;19905;-79
2021/01/05 13:14:07;;;;;;;;;;;6.20;81.70;;;;;;5049171;28;19967;-79
2021/01/05 13:16:33;;;;;;;;;;;6.20;81.70;;;;;;5033744;28;20284;-77
2021/01/05 13:19:00;;;;;;;;;;;6.20;81.70;;;;;;5050314;28;19966;-77
2021/01/05 13:21:29;;;;;;;;;;;6.10;81.70;;;;;;5050535;28;19912;-78
2021/01/05 13:23:55;;;;;;;;;;;6.20;81.70;;;;;;5050131;28;19912;-78
2021/01/05 13:26:21;;;;;;;;;;;6.20;82.30;;;;;;5051419;28;19964;-76
2021/01/05 13:28:47;;;;;;;;;;;6.20;81.70;;;;;;5028972;28;19955;-77
2021/01/05 13:31:12;;;;;;;;;;;6.20;81.70;;;;;;5042380;28;20346;-78
2021/01/05 13:33:39;;;;;;;;;;;6.20;81.70;;;;;;5027167;28;20404;-80
2021/01/05 13:36:04;;;;;;;;;;;6.20;81.70;;;;;;5048841;28;20446;-77
2021/01/05 13:38:30;;;;;;;;;;;6.20;81.60;;;;;;5039746;28;19967;-77
2021/01/05 13:40:56;;;;;;;;;;;6.20;81.60;;;;;;5046814;28;19915;-78
2021/01/05 13:43:21;;;;;;;;;;;6.20;81.60;;;;;;5029944;28;20247;-81
2021/01/05 13:45:47;;;;;;;;;;;6.20;81.60;;;;;;5041284;28;19921;-78
2021/01/05 13:48:14;;;;;;;;;;;6.20;81.60;;;;;;5049291;28;19924;-81
2021/01/05 13:50:40;;;;;;;;;;;6.20;81.60;;;;;;5010852;28;19916;-78
2021/01/05 13:53:06;;;;;;;;;;;6.20;81.70;;;;;;5030321;28;19917;-77
2021/01/05 13:55:31;;;;;;;;;;;6.20;81.60;;;;;;5041297;28;19908;-78
2021/01/05 13:57:57;;;;;;;;;;;6.20;81.60;;;;;;5040547;28;19967;-77
2021/01/05 14:00:23;;;;;;;;;;;6.30;81.70;;;;;;5022278;28;19964;-78
2021/01/05 14:02:48;;;;;;;;;;;6.30;81.60;;;;;;5045508;28;20023;-76
2021/01/05 14:05:14;;;;;;;;;;;6.20;81.60;;;;;;5042102;28;19921;-77
2021/01/05 14:07:40;;;;;;;;;;;6.30;81.60;;;;;;5031491;28;20395;-80
2021/01/05 14:10:07;;;;;;;;;;;6.20;81.70;;;;;;5041029;28;19960;-77
2021/01/05 14:12:33;;;;;;;;;;;6.20;81.60;;;;;;5033138;28;19920;-78
2021/01/05 14:14:59;;;;;;;;;;;6.30;81.70;;;;;;5050998;28;19915;-78
2021/01/05 14:17:27;;;;;;;;;;;6.30;81.70;;;;;;5048637;28;19991;-78
2021/01/05 14:19:54;;;;;;;;;;;6.30;81.70;;;;;;5019063;28;19967;-77
2021/01/05 14:22:19;;;;;;;;;;;6.30;81.70;;;;;;5032788;28;19936;-77
2021/01/05 14:24:45;;;;;;;;;;;6.30;81.70;;;;;;5032010;28;19913;-77
2021/01/05 14:27:12;;;;;;;;;;;6.30;81.70;;;;;;5052938;28;19927;-77
2021/01/05 14:29:37;;;;;;;;;;;6.30;81.70;;;;;;5053996;28;19905;-76
2021/01/05 14:32:05;;;;;;;;;;;6.30;81.60;;;;;;5054235;28;20409;-77
2021/01/05 14:34:31;;;;;;;;;;;6.30;81.60;;;;;;5053474;28;19912;-79
2021/01/05 14:36:58;;;;;;;;;;;6.30;81.50;;;;;;5050373;28;19909;-76
2021/01/05 14:39:24;;;;;;;;;;;6.30;81.60;;;;;;5041840;28;19912;-77
2021/01/05 14:41:52;;;;;;;;;;;6.30;81.60;;;;;;5025036;28;20046;-77
2021/01/05 14:44:29;;;;;;;;;;;6.30;81.60;;;;;;5031571;28;19909;-77
2021/01/05 14:46:59;;;;;;;;;;;6.30;81.60;;;;;;5063525;28;19925;-78